createdAt,value
2022-10-15T04:58:01.071Z,35.83
2022-10-15T05:01:07.657Z,41.10
2022-10-15T05:04:12.329Z,36.97
2022-10-15T05:07:15.532Z,40.60
2022-10-15T05:10:18.431Z,41.25
2022-10-15T05:13:21.780Z,36.67
2022-10-15T05:16:27.513Z,42.58
2022-10-15T05:19:30.414Z,40.53
2022-10-15T05:22:33.107Z,35.33
2022-10-15T05:25:37.034Z,37.47
2022-10-15T05:28:39.873Z,38.70
2022-10-15T05:31:42.726Z,37.35
2022-10-15T05:34:46.823Z,38.42
2022-10-15T05:37:49.891Z,36.95
2022-10-15T05:40:53.161Z,36.33
2022-10-15T05:43:58.715Z,36.50
2022-10-15T05:47:01.291Z,38.90
2022-10-15T05:50:08.153Z,43.42
2022-10-15T05:53:15.581Z,36.75
2022-10-15T05:56:19.245Z,34.55
2022-10-15T05:59:21.795Z,42.05
2022-10-15T06:02:24.829Z,36.88
2022-10-15T06:05:27.944Z,36.35
2022-10-15T06:08:31.547Z,34.15
2022-10-15T06:11:36.456Z,34.08
2022-10-15T06:14:38.992Z,37.55
2022-10-15T06:17:42.453Z,39.10
2022-10-15T06:20:51.451Z,34.58
2022-10-15T06:23:54.208Z,34.38
2022-10-15T06:26:59.372Z,33.83
2022-10-15T06:30:02.541Z,37.13
2022-10-15T06:33:05.173Z,36.28
2022-10-15T06:36:10.301Z,37.60
2022-10-15T06:39:12.725Z,37.22
2022-10-15T06:42:17.164Z,38.28
2022-10-15T06:45:23.061Z,35.70
2022-10-15T06:48:26.224Z,32.97
2022-10-15T06:51:28.690Z,29.98
2022-10-15T06:54:31.491Z,35.38
2022-10-15T06:57:34.101Z,32.90
2022-10-15T07:00:36.958Z,28.95
2022-10-15T07:03:41.811Z,29.60
2022-10-15T07:06:44.617Z,28.50
2022-10-15T07:09:47.608Z,30.05
2022-10-15T07:12:50.434Z,25.35
2022-10-15T07:15:53.929Z,24.85
2022-10-15T07:18:56.679Z,22.75
2022-10-15T07:21:59.155Z,21.08
2022-10-15T07:25:02.164Z,21.00
2022-10-15T07:28:05.463Z,22.65
2022-10-15T07:31:08.263Z,26.30
2022-10-15T07:34:10.756Z,20.60
2022-10-15T07:37:13.487Z,23.42
2022-10-15T07:40:17.851Z,22.50
2022-10-15T07:43:20.635Z,20.17
2022-10-15T07:46:23.199Z,20.62
2022-10-15T07:49:29.479Z,26.05
2022-10-15T07:52:31.957Z,21.37
2022-10-15T07:55:35.328Z,27.52
2022-10-15T07:58:38.678Z,26.58
